Accueil
METAR-TAF:

METAR-TAF

Aéroports :

Saint-Etienne, France

Aéroport de Saint-Étienne-Loire

latitude: 45-32N, longitude: 004-18E, altitude: 404 m

Observation

Le bulletin a été fait il y a 16 minutes, à 19:00 UTC
Vent 2 kt de direction variable
Température 8°C
Humidité 71%
Pression 1018 hPa
Visibilité 10 km ou plus
pas de nuages en-dessous de 1500 mètres et pas de cumulonimbus.

METAR: LFMH 211900Z AUTO VRB02KT CAVOK 08/03 Q1018 NOSIG

Heure: 20:16 (19:16 UTC)

Prévision

Le bulletin a été fait il y a 5 heures et 16 minutes, à 14:00 UTC
Prévision valable du 21 à 15 UTC au 22 à 15 UTC
Vent 3 kt de direction variable
Visibilité 10 km ou plus
pas de nuages en-dessous de 1500 mètres et pas de cumulonimbus.
Evoluant progressivement
du 22 à 11 UTC au 22 à 13 UTC
Vent 15 kt de sud avec des rafales jusqu'à 25 kt

TAF: LFMH 211400Z 2115/2215 VRB03KT CAVOK BECMG 2211/2213 18015G25KT

Observations et prévisions météorologiques de plus de 4000 aéroports (messages METAR et TAF).

Les stations disponibles sont représentées par des disques jaunes et rouges sur la carte.

Passer la souris dessus pour voir le nom de la station.

Cliquer dessus pour voir les observations et prévisions météorologiques.

Pour changer de carte: cliquez sur les boutons verts avec une croix noire pour zoomer, sur le bouton vert avec un tiret pour effectuer un zoom arrière, ou sur les flèches vertes pour les cartes adjacentes.


METAR-TAF: